Time,TemperatureF,DewpointF,PressureIn,WindDirection,WindDirectionDegrees,WindSpeedMPH,WindSpeedGustMPH,Humidity,HourlyPrecipIn,Conditions,Clouds,dailyrainin,SoftwareType,DateUTC
2013-02-15 00:00:00,65.2,63.7,30.94,ESE,103,5.0,5.0,95,0.00,,,0.08,Wunderground v.1.15,2013-02-15 05:00:00,
2013-02-15 00:04:00,65.2,63.7,30.95,NNE,13,4.0,7.0,95,0.00,,,0.08,Wunderground v.1.15,2013-02-15 05:04:00,
2013-02-15 00:05:00,65.2,63.7,30.95,NNE,25,4.0,7.0,95,0.00,,,0.08,Wunderground v.1.15,2013-02-15 05:05:00,
2013-02-15 00:10:00,65.2,63.7,30.95,NNW,340,4.0,4.0,95,0.00,,,0.08,Wunderground v.1.15,2013-02-15 05:10:00,
2013-02-15 00:11:00,65.2,63.7,30.95,NW,325,5.0,5.0,95,0.00,,,0.08,Wunderground v.1.15,2013-02-15 05:11:00,
2013-02-15 00:16:00,65.3,63.8,30.94,NNW,344,5.0,13.0,95,0.00,,,0.08,Wunderground v.1.15,2013-02-15 05:16:00,
2013-02-15 00:21:00,65.3,63.8,30.94,NNE,25,5.0,5.0,95,0.00,,,0.08,Wunderground v.1.15,2013-02-15 05:21:00,
2013-02-15 00:26:00,65.4,63.9,30.94,NNE,13,4.0,8.0,95,0.00,,,0.08,Wunderground v.1.15,2013-02-15 05:26:00,
2013-02-15 00:32:00,65.5,64.0,30.94,ESE,117,4.0,4.0,95,0.00,,,0.08,Wunderground v.1.15,2013-02-15 05:32:00,
2013-02-15 00:37:00,65.4,63.9,30.94,ESE,120,4.0,4.0,95,0.00,,,0.08,Wunderground v.1.15,2013-02-15 05:37:00,
2013-02-15 00:42:00,65.5,64.0,30.94,North,351,3.0,6.0,95,0.00,,,0.08,Wunderground v.1.15,2013-02-15 05:42:00,
2013-02-15 00:47:00,65.6,64.1,30.94,North,351,4.0,6.0,95,0.00,,,0.08,Wunderground v.1.15,2013-02-15 05:47:00,
2013-02-15 00:53:00,65.6,64.1,30.94,NNE,18,5.0,5.0,95,0.00,,,0.08,Wunderground v.1.15,2013-02-15 05:53:00,
2013-02-15 00:59:00,65.8,64.3,30.94,NNW,347,4.0,5.0,95,0.00,,,0.08,Wunderground v.1.15,2013-02-15 05:59:00,
2013-02-15 01:04:00,65.8,64.3,30.95,NE,40,4.0,7.0,95,0.00,,,0.08,Wunderground v.1.15,2013-02-15 06:04:00,
2013-02-15 01:09:00,65.8,64.3,30.94,NE,41,4.0,7.0,95,0.00,,,0.08,Wunderground v.1.15,2013-02-15 06:09:00,
2013-02-15 01:14:00,65.9,64.4,30.94,NNW,338,4.0,6.0,95,0.00,,,0.08,Wunderground v.1.15,2013-02-15 06:14:00,
2013-02-15 01:19:00,65.9,64.4,30.94,NE,47,4.0,6.0,95,0.00,,,0.08,Wunderground v.1.15,2013-02-15 06:19:00,
2013-02-15 01:24:00,65.9,64.4,30.94,NE,48,4.0,5.0,95,0.00,,,0.08,Wunderground v.1.15,2013-02-15 06:24:00,
2013-02-15 01:29:00,66.0,64.5,30.94,NE,56,3.0,5.0,95,0.00,,,0.08,Wunderground v.1.15,2013-02-15 06:29:00,
2013-02-15 01:34:00,66.0,64.2,30.94,North,356,3.0,6.0,94,0.00,,,0.08,Wunderground v.1.15,2013-02-15 06:34:00,
2013-02-15 01:40:00,65.9,64.1,30.94,North,354,4.0,5.0,94,0.00,,,0.08,Wunderground v.1.15,2013-02-15 06:40:00,
2013-02-15 01:45:00,65.8,64.0,30.94,North,354,5.0,8.0,94,0.00,,,0.08,Wunderground v.1.15,2013-02-15 06:45:00,
2013-02-15 01:51:00,65.9,64.1,30.93,ENE,65,4.0,4.0,94,0.00,,,0.08,Wunderground v.1.15,2013-02-15 06:51:00,
2013-02-15 01:56:00,65.9,64.1,30.93,NNE,13,3.0,8.0,94,0.00,,,0.08,Wunderground v.1.15,2013-02-15 06:56:00,
2013-02-15 02:01:00,65.7,63.9,30.93,NNE,19,4.0,5.0,94,0.00,,,0.08,Wunderground v.1.15,2013-02-15 07:01:00,
2013-02-15 02:07:00,65.7,63.9,30.93,East,91,4.0,6.0,94,0.00,,,0.08,Wunderground v.1.15,2013-02-15 07:07:00,
2013-02-15 02:13:00,65.7,64.2,30.93,NNE,33,3.0,6.0,95,0.00,,,0.08,Wunderground v.1.15,2013-02-15 07:13:00,
2013-02-15 02:18:00,65.8,64.3,30.93,NNE,30,3.0,6.0,95,0.00,,,0.09,Wunderground v.1.15,2013-02-15 07:18:00,
2013-02-15 02:23:00,65.8,64.3,30.93,NNE,16,3.0,5.0,95,0.00,,,0.09,Wunderground v.1.15,2013-02-15 07:23:00,
2013-02-15 02:28:00,65.9,64.4,30.93,North,353,2.0,5.0,95,0.00,,,0.00,Wunderground v.1.15,2013-02-15 07:28:00,
2013-02-15 02:33:00,66.0,64.5,30.92,NNE,29,2.0,5.0,95,0.00,,,0.00,Wunderground v.1.15,2013-02-15 07:33:00,
2013-02-15 02:38:00,66.2,64.7,30.92,NNE,25,2.0,7.0,95,0.00,,,0.00,Wunderground v.1.15,2013-02-15 07:38:00,
2013-02-15 02:43:00,66.4,64.9,30.92,North,5,2.0,3.0,95,0.00,,,0.00,Wunderground v.1.15,2013-02-15 07:43:00,
2013-02-15 02:48:00,66.4,64.9,30.91,NNE,13,2.0,5.0,95,0.00,,,0.00,Wunderground v.1.15,2013-02-15 07:48:00,
2013-02-15 02:53:00,66.5,65.0,30.91,NE,41,3.0,3.0,95,0.00,,,0.00,Wunderground v.1.15,2013-02-15 07:53:00,
2013-02-15 02:59:00,66.6,65.1,30.91,NE,49,2.0,4.0,95,0.00,,,0.00,Wunderground v.1.15,2013-02-15 07:59:00,
2013-02-15 03:04:00,66.6,65.1,30.91,NNE,21,2.0,4.0,95,0.00,,,0.00,Wunderground v.1.15,2013-02-15 08:04:00,
2013-02-15 03:09:00,66.7,65.2,30.91,NW,309,3.0,6.0,95,0.00,,,0.00,Wunderground v.1.15,2013-02-15 08:09:00,
2013-02-15 03:14:00,66.8,65.3,30.92,ESE,102,3.0,3.0,95,0.00,,,0.00,Wunderground v.1.15,2013-02-15 08:14:00,
2013-02-15 03:19:00,66.8,65.3,30.92,East,91,2.0,4.0,95,0.00,,,0.00,Wunderground v.1.15,2013-02-15 08:19:00,
2013-02-15 03:25:00,66.8,65.3,30.92,NE,44,2.0,3.0,95,0.00,,,0.00,Wunderground v.1.15,2013-02-15 08:25:00,
2013-02-15 03:30:00,66.8,65.3,30.92,ESE,108,2.0,2.0,95,0.00,,,0.00,Wunderground v.1.15,2013-02-15 08:30:00,
2013-02-15 03:36:00,66.8,65.3,30.91,NW,314,2.0,4.0,95,0.00,,,0.00,Wunderground v.1.15,2013-02-15 08:36:00,
2013-02-15 03:41:00,66.9,65.4,30.92,North,6,2.0,4.0,95,0.00,,,0.00,Wunderground v.1.15,2013-02-15 08:41:00,
2013-02-15 03:46:00,67.1,65.6,30.92,ENE,59,2.0,4.0,95,0.00,,,0.00,Wunderground v.1.15,2013-02-15 08:46:00,
2013-02-15 03:51:00,67.1,65.6,30.91,NE,55,2.0,3.0,95,0.00,,,0.00,Wunderground v.1.15,2013-02-15 08:51:00,
2013-02-15 03:56:00,67.0,65.5,30.91,NE,53,2.0,3.0,95,0.00,,,0.00,Wunderground v.1.15,2013-02-15 08:56:00,
2013-02-15 04:02:00,67.0,65.5,30.90,ENE,67,2.0,3.0,95,0.00,,,0.00,Wunderground v.1.15,2013-02-15 09:02:00,
2013-02-15 04:07:00,66.9,65.4,30.90,ESE,107,1.0,5.0,95,0.00,,,0.00,Wunderground v.1.15,2013-02-15 09:07:00,
2013-02-15 04:12:00,66.9,65.7,30.90,North,6,2.0,4.0,96,0.00,,,0.00,Wunderground v.1.15,2013-02-15 09:12:00,
2013-02-15 04:17:00,67.0,65.8,30.90,ESE,108,1.0,4.0,96,0.00,,,0.00,Wunderground v.1.15,2013-02-15 09:17:00,
2013-02-15 04:23:00,67.1,65.9,30.91,NNE,16,1.0,3.0,96,0.00,,,0.00,Wunderground v.1.15,2013-02-15 09:23:00,
2013-02-15 04:28:00,67.3,66.1,30.91,ESE,105,2.0,3.0,96,0.00,,,0.00,Wunderground v.1.15,2013-02-15 09:28:00,
2013-02-15 04:34:00,67.5,66.3,30.91,ENE,65,1.0,3.0,96,0.00,,,0.00,Wunderground v.1.15,2013-02-15 09:34:00,
2013-02-15 04:39:00,67.5,66.3,30.91,North,349,1.0,3.0,96,0.00,,,0.00,Wunderground v.1.15,2013-02-15 09:39:00,
2013-02-15 04:44:00,67.6,66.4,30.91,East,101,1.0,3.0,96,0.00,,,0.00,Wunderground v.1.15,2013-02-15 09:44:00,
2013-02-15 04:50:00,67.6,66.4,30.91,NE,47,1.0,1.0,96,0.00,,,0.00,Wunderground v.1.15,2013-02-15 09:50:00,
2013-02-15 04:55:00,67.7,66.5,30.91,East,90,1.0,3.0,96,0.00,,,0.00,Wunderground v.1.15,2013-02-15 09:55:00,
2013-02-15 05:00:00,67.7,66.5,30.91,NNE,22,1.0,3.0,96,0.00,,,0.00,Wunderground v.1.15,2013-02-15 10:00:00,
2013-02-15 05:05:00,67.7,66.5,30.91,NE,44,0.0,3.0,96,0.00,,,0.00,Wunderground v.1.15,2013-02-15 10:05:00,
2013-02-15 05:11:00,67.7,66.5,30.91,ENE,65,0.0,3.0,96,0.00,,,0.00,Wunderground v.1.15,2013-02-15 10:11:00,
2013-02-15 05:17:00,67.8,66.6,30.91,ENE,60,0.0,3.0,96,0.00,,,0.00,Wunderground v.1.15,2013-02-15 10:17:00,
2013-02-15 05:22:00,67.9,66.7,30.91,NNE,22,0.0,3.0,96,0.00,,,0.00,Wunderground v.1.15,2013-02-15 10:22:00,
2013-02-15 05:27:00,68.1,66.9,30.92,North,8,1.0,3.0,96,0.00,,,0.00,Wunderground v.1.15,2013-02-15 10:27:00,
2013-02-15 05:32:00,68.3,67.1,30.92,North,8,1.0,3.0,96,0.00,,,0.00,Wunderground v.1.15,2013-02-15 10:32:00,
2013-02-15 05:37:00,68.5,67.3,30.92,NNW,347,1.0,3.0,96,0.00,,,0.00,Wunderground v.1.15,2013-02-15 10:37:00,
2013-02-15 05:42:00,68.7,67.5,30.92,North,357,2.0,3.0,96,0.00,,,0.00,Wunderground v.1.15,2013-02-15 10:42:00,
2013-02-15 05:47:00,68.7,67.5,30.92,North,5,2.0,7.0,96,0.00,,,0.00,Wunderground v.1.15,2013-02-15 10:47:00,
2013-02-15 05:52:00,68.6,67.4,30.92,NNE,22,2.0,3.0,96,0.00,,,0.00,Wunderground v.1.15,2013-02-15 10:52:00,
2013-02-15 05:58:00,68.6,67.1,30.92,NW,312,2.0,3.0,95,0.00,,,0.00,Wunderground v.1.15,2013-02-15 10:58:00,
2013-02-15 06:03:00,68.5,67.0,30.92,North,360,2.0,3.0,95,0.00,,,0.00,Wunderground v.1.15,2013-02-15 11:03:00,
2013-02-15 06:08:00,68.4,66.9,30.92,East,99,2.0,6.0,95,0.00,,,0.00,Wunderground v.1.15,2013-02-15 11:08:00,
2013-02-15 06:13:00,68.5,67.3,30.92,NNE,15,2.0,3.0,96,0.00,,,0.00,Wunderground v.1.15,2013-02-15 11:13:00,
2013-02-15 06:19:00,68.4,66.9,30.92,North,6,2.0,4.0,95,0.00,,,0.00,Wunderground v.1.15,2013-02-15 11:19:00,
2013-02-15 06:24:00,68.3,66.8,30.92,East,93,2.0,3.0,95,0.00,,,0.00,Wunderground v.1.15,2013-02-15 11:24:00,
2013-02-15 06:29:00,68.2,66.7,30.92,NNE,27,2.0,4.0,95,0.00,,,0.00,Wunderground v.1.15,2013-02-15 11:29:00,
2013-02-15 06:35:00,68.2,66.7,30.93,NNE,30,2.0,3.0,95,0.00,,,0.00,Wunderground v.1.15,2013-02-15 11:35:00,
2013-02-15 06:40:00,68.1,66.9,30.93,East,86,1.0,1.0,96,0.00,,,0.00,Wunderground v.1.15,2013-02-15 11:40:00,
2013-02-15 06:45:00,68.2,67.0,30.93,ENE,77,1.0,3.0,96,0.00,,,0.00,Wunderground v.1.15,2013-02-15 11:45:00,
2013-02-15 06:50:00,68.2,67.0,30.93,NE,44,1.0,3.0,96,0.00,,,0.00,Wunderground v.1.15,2013-02-15 11:50:00,
2013-02-15 06:55:00,68.2,67.0,30.93,NE,44,1.0,3.0,96,0.00,,,0.00,Wunderground v.1.15,2013-02-15 11:55:00,
2013-02-15 07:01:00,68.3,67.1,30.94,NE,41,0.0,3.0,96,0.00,,,0.00,Wunderground v.1.15,2013-02-15 12:01:00,
2013-02-15 07:07:00,68.4,67.2,30.93,ESE,114,1.0,3.0,96,0.00,,,0.00,Wunderground v.1.15,2013-02-15 12:07:00,
2013-02-15 07:12:00,68.4,67.2,30.94,ENE,75,1.0,3.0,96,0.00,,,0.01,Wunderground v.1.15,2013-02-15 12:12:00,
2013-02-15 07:17:00,68.5,67.3,30.95,NNE,20,1.0,3.0,96,0.00,,,0.01,Wunderground v.1.15,2013-02-15 12:17:00,
2013-02-15 07:23:00,68.5,67.3,30.95,NNE,25,1.0,3.0,96,0.00,,,0.01,Wunderground v.1.15,2013-02-15 12:23:00,
2013-02-15 07:28:00,68.4,67.2,30.95,NNE,21,2.0,3.0,96,0.00,,,0.01,Wunderground v.1.15,2013-02-15 12:28:00,
2013-02-15 07:34:00,68.3,67.1,30.95,NE,41,1.0,3.0,96,0.00,,,0.01,Wunderground v.1.15,2013-02-15 12:34:00,
2013-02-15 07:39:00,68.3,67.1,30.95,East,96,1.0,3.0,96,0.00,,,0.01,Wunderground v.1.15,2013-02-15 12:39:00,
2013-02-15 07:45:00,68.3,67.1,30.95,NE,44,1.0,3.0,96,0.00,,,0.01,Wunderground v.1.15,2013-02-15 12:45:00,
2013-02-15 07:50:00,68.4,67.2,30.95,North,359,2.0,3.0,96,0.00,,,0.01,Wunderground v.1.15,2013-02-15 12:50:00,
2013-02-15 07:55:00,68.4,67.2,30.95,NNE,30,2.0,3.0,96,0.00,,,0.01,Wunderground v.1.15,2013-02-15 12:55:00,
2013-02-15 08:00:00,68.6,67.4,30.96,North,9,1.0,3.0,96,0.00,,,0.01,Wunderground v.1.15,2013-02-15 13:00:00,
2013-02-15 08:06:00,68.6,67.4,30.95,NE,41,1.0,3.0,96,0.00,,,0.01,Wunderground v.1.15,2013-02-15 13:06:00,
2013-02-15 08:11:00,68.4,67.2,30.96,NNE,18,1.0,3.0,96,0.00,,,0.01,Wunderground v.1.15,2013-02-15 13:11:00,
2013-02-15 08:16:00,68.4,67.2,30.96,NNE,12,1.0,3.0,96,0.00,,,0.01,Wunderground v.1.15,2013-02-15 13:16:00,
2013-02-15 08:21:00,68.5,67.3,30.96,WNW,291,1.0,3.0,96,0.00,,,0.01,Wunderground v.1.15,2013-02-15 13:21:00,
2013-02-15 08:26:00,68.5,67.3,30.96,North,353,1.0,3.0,96,0.00,,,0.01,Wunderground v.1.15,2013-02-15 13:26:00,
2013-02-15 08:31:00,68.6,67.4,30.96,NE,55,1.0,3.0,96,0.00,,,0.01,Wunderground v.1.15,2013-02-15 13:31:00,
2013-02-15 08:37:00,68.7,67.5,30.96,NE,37,2.0,3.0,96,0.00,,,0.01,Wunderground v.1.15,2013-02-15 13:37:00,
2013-02-15 08:42:00,69.0,67.8,30.96,North,4,2.0,3.0,96,0.00,,,0.01,Wunderground v.1.15,2013-02-15 13:42:00,
2013-02-15 08:47:00,69.2,68.0,30.97,NNE,14,1.0,3.0,96,0.00,,,0.01,Wunderground v.1.15,2013-02-15 13:47:00,
2013-02-15 08:52:00,69.7,68.2,30.97,NE,41,1.0,3.0,95,0.00,,,0.01,Wunderground v.1.15,2013-02-15 13:52:00,
2013-02-15 08:57:00,69.9,68.4,30.97,NE,56,1.0,3.0,95,0.00,,,0.01,Wunderground v.1.15,2013-02-15 13:57:00,
2013-02-15 09:02:00,70.3,68.8,30.97,NNE,29,1.0,3.0,95,0.00,,,0.01,Wunderground v.1.15,2013-02-15 14:02:00,
2013-02-15 09:08:00,70.7,68.9,30.98,NNE,30,2.0,3.0,94,0.00,,,0.01,Wunderground v.1.15,2013-02-15 14:08:00,
2013-02-15 09:13:00,70.7,68.6,30.98,North,351,2.0,4.0,93,0.00,,,0.01,Wunderground v.1.15,2013-02-15 14:13:00,
2013-02-15 09:18:00,70.7,68.6,30.98,NNE,18,1.0,4.0,93,0.00,,,0.01,Wunderground v.1.15,2013-02-15 14:18:00,
2013-02-15 09:24:00,70.7,68.6,30.98,North,355,1.0,3.0,93,0.00,,,0.01,Wunderground v.1.15,2013-02-15 14:24:00,
2013-02-15 09:29:00,70.6,68.5,30.98,NNE,31,1.0,3.0,93,0.00,,,0.01,Wunderground v.1.15,2013-02-15 14:29:00,
2013-02-15 09:35:00,70.3,68.2,30.98,NNE,20,1.0,3.0,93,0.00,,,0.01,Wunderground v.1.15,2013-02-15 14:35:00,
2013-02-15 09:40:00,70.3,68.2,30.98,NNE,30,1.0,3.0,93,0.00,,,0.01,Wunderground v.1.15,2013-02-15 14:40:00,
2013-02-15 09:45:00,70.2,68.1,30.98,NW,326,2.0,6.0,93,0.00,,,0.01,Wunderground v.1.15,2013-02-15 14:45:00,
2013-02-15 09:51:00,70.3,68.2,30.98,NW,325,2.0,3.0,93,0.00,,,0.01,Wunderground v.1.15,2013-02-15 14:51:00,
2013-02-15 09:56:00,70.3,68.2,30.98,NNE,32,1.0,4.0,93,0.00,,,0.01,Wunderground v.1.15,2013-02-15 14:56:00,
2013-02-15 10:01:00,70.4,68.3,30.98,North,355,1.0,3.0,93,0.00,,,0.01,Wunderground v.1.15,2013-02-15 15:01:00,
2013-02-15 10:07:00,70.4,68.3,30.98,North,354,1.0,3.0,93,0.00,,,0.01,Wunderground v.1.15,2013-02-15 15:07:00,
2013-02-15 10:12:00,70.5,68.4,30.98,NNE,21,2.0,3.0,93,0.00,,,0.01,Wunderground v.1.15,2013-02-15 15:12:00,
2013-02-15 10:17:00,71.1,69.0,30.98,NE,41,1.0,4.0,93,0.00,,,0.01,Wunderground v.1.15,2013-02-15 15:17:00,
2013-02-15 10:23:00,71.7,69.3,30.97,North,5,1.0,3.0,92,0.00,,,0.01,Wunderground v.1.15,2013-02-15 15:23:00,
2013-02-15 10:28:00,72.0,69.2,30.97,NE,53,2.0,4.0,91,0.00,,,0.01,Wunderground v.1.15,2013-02-15 15:28:00,
2013-02-15 10:34:00,72.7,69.6,30.97,NNE,24,1.0,3.0,90,0.00,,,0.01,Wunderground v.1.15,2013-02-15 15:34:00,
2013-02-15 10:40:00,73.1,69.7,30.97,ESE,107,2.0,3.0,89,0.00,,,0.01,Wunderground v.1.15,2013-02-15 15:40:00,
2013-02-15 10:45:00,73.4,69.6,30.97,East,91,2.0,3.0,88,0.00,,,0.01,Wunderground v.1.15,2013-02-15 15:45:00,
2013-02-15 10:51:00,73.2,69.1,30.98,ESE,103,2.0,3.0,87,0.00,,,0.01,Wunderground v.1.15,2013-02-15 15:51:00,
2013-02-15 10:56:00,72.8,68.7,30.97,East,82,3.0,4.0,87,0.00,,,0.01,Wunderground v.1.15,2013-02-15 15:56:00,
2013-02-15 11:01:00,72.8,69.0,30.97,ENE,72,3.0,3.0,88,0.00,,,0.01,Wunderground v.1.15,2013-02-15 16:01:00,
2013-02-15 11:08:00,73.1,69.7,30.97,East,98,2.0,4.0,89,0.00,,,0.01,Wunderground v.1.15,2013-02-15 16:08:00,
2013-02-15 11:13:00,73.3,69.5,30.97,East,84,1.0,3.0,88,0.00,,,0.01,Wunderground v.1.15,2013-02-15 16:13:00,
2013-02-15 11:19:00,73.3,69.9,30.97,ESE,123,2.0,5.0,89,0.00,,,0.01,Wunderground v.1.15,2013-02-15 16:19:00,
2013-02-15 11:24:00,73.7,70.3,30.97,ENE,65,2.0,3.0,89,0.00,,,0.01,Wunderground v.1.15,2013-02-15 16:24:00,
2013-02-15 11:30:00,73.4,69.3,30.97,East,91,3.0,3.0,87,0.00,,,0.01,Wunderground v.1.15,2013-02-15 16:30:00,
2013-02-15 11:35:00,73.3,69.9,30.97,East,81,3.0,4.0,89,0.00,,,0.01,Wunderground v.1.15,2013-02-15 16:35:00,
2013-02-15 11:40:00,73.3,69.9,30.96,East,92,3.0,3.0,89,0.00,,,0.01,Wunderground v.1.15,2013-02-15 16:40:00,
2013-02-15 11:46:00,73.8,70.4,30.96,SSE,165,3.0,3.0,89,0.00,,,0.01,Wunderground v.1.15,2013-02-15 16:46:00,
2013-02-15 11:51:00,74.3,69.8,30.96,SE,129,2.0,3.0,86,0.00,,,0.01,Wunderground v.1.15,2013-02-15 16:51:00,
2013-02-15 11:56:00,74.4,70.3,30.96,ESE,109,2.0,3.0,87,0.00,,,0.01,Wunderground v.1.15,2013-02-15 16:56:00,
2013-02-15 12:02:00,74.4,69.9,30.95,ENE,58,2.0,4.0,86,0.00,,,0.01,Wunderground v.1.15,2013-02-15 17:02:00,
2013-02-15 12:08:00,74.8,70.3,30.95,NNW,329,2.0,4.0,86,0.00,,,0.01,Wunderground v.1.15,2013-02-15 17:08:00,
2013-02-15 12:13:00,74.8,70.3,30.95,NE,55,2.0,4.0,86,0.00,,,0.01,Wunderground v.1.15,2013-02-15 17:13:00,
2013-02-15 12:18:00,74.6,69.8,30.95,NNW,340,3.0,7.0,85,0.00,,,0.01,Wunderground v.1.15,2013-02-15 17:18:00,
2013-02-15 12:24:00,74.4,69.9,30.95,NNW,342,3.0,4.0,86,0.00,,,0.01,Wunderground v.1.15,2013-02-15 17:24:00,
2013-02-15 12:29:00,74.4,69.9,30.95,NE,46,2.0,4.0,86,0.00,,,0.01,Wunderground v.1.15,2013-02-15 17:29:00,
2013-02-15 12:35:00,74.5,69.7,30.95,NNE,13,2.0,3.0,85,0.00,,,0.01,Wunderground v.1.15,2013-02-15 17:35:00,
2013-02-15 12:40:00,74.1,69.3,30.95,NNE,24,2.0,3.0,85,0.00,,,0.01,Wunderground v.1.15,2013-02-15 17:40:00,
2013-02-15 12:45:00,74.2,69.7,30.94,North,349,2.0,4.0,86,0.00,,,0.01,Wunderground v.1.15,2013-02-15 17:45:00,
2013-02-15 12:51:00,74.3,69.8,30.94,NW,309,2.0,3.0,86,0.00,,,0.01,Wunderground v.1.15,2013-02-15 17:51:00,
2013-02-15 12:57:00,74.2,69.4,30.94,NE,46,2.0,5.0,85,0.00,,,0.01,Wunderground v.1.15,2013-02-15 17:57:00,
2013-02-15 13:02:00,74.2,69.7,30.93,North,356,2.0,4.0,86,0.00,,,0.01,Wunderground v.1.15,2013-02-15 18:02:00,
2013-02-15 13:08:00,74.1,69.3,30.93,NE,46,2.0,4.0,85,0.00,,,0.01,Wunderground v.1.15,2013-02-15 18:08:00,
2013-02-15 13:13:00,74.4,69.6,30.93,NNW,330,2.0,3.0,85,0.00,,,0.01,Wunderground v.1.15,2013-02-15 18:13:00,
2013-02-15 13:19:00,75.0,70.2,30.93,NNW,343,2.0,4.0,85,0.00,,,0.01,Wunderground v.1.15,2013-02-15 18:19:00,
2013-02-15 13:24:00,75.6,70.4,30.93,NE,35,1.0,4.0,84,0.00,,,0.01,Wunderground v.1.15,2013-02-15 18:24:00,
2013-02-15 13:29:00,76.2,70.7,30.93,NNW,343,1.0,4.0,83,0.00,,,0.01,Wunderground v.1.15,2013-02-15 18:29:00,
2013-02-15 13:35:00,76.1,70.6,30.92,NNE,12,1.0,4.0,83,0.00,,,0.01,Wunderground v.1.15,2013-02-15 18:35:00,
2013-02-15 13:40:00,75.8,69.9,30.93,ENE,64,2.0,4.0,82,0.00,,,0.01,Wunderground v.1.15,2013-02-15 18:40:00,
2013-02-15 13:45:00,75.4,69.9,30.93,NNE,27,2.0,4.0,83,0.00,,,0.01,Wunderground v.1.15,2013-02-15 18:45:00,
2013-02-15 13:50:00,75.0,69.8,30.92,NNE,12,2.0,3.0,84,0.00,,,0.01,Wunderground v.1.15,2013-02-15 18:50:00,
2013-02-15 13:55:00,74.9,70.1,30.92,North,356,2.0,3.0,85,0.00,,,0.01,Wunderground v.1.15,2013-02-15 18:55:00,
2013-02-15 14:01:00,75.0,70.2,30.92,North,9,2.0,3.0,85,0.00,,,0.01,Wunderground v.1.15,2013-02-15 19:01:00,
2013-02-15 14:07:00,74.9,70.1,30.92,NW,319,2.0,3.0,85,0.00,,,0.01,Wunderground v.1.15,2013-02-15 19:07:00,
2013-02-15 14:12:00,75.0,70.2,30.92,North,8,1.0,3.0,85,0.00,,,0.01,Wunderground v.1.15,2013-02-15 19:12:00,
2013-02-15 14:17:00,74.9,70.1,30.92,NNE,25,1.0,3.0,85,0.00,,,0.01,Wunderground v.1.15,2013-02-15 19:17:00,
2013-02-15 14:23:00,74.6,70.1,30.92,NNE,13,2.0,4.0,86,0.00,,,0.01,Wunderground v.1.15,2013-02-15 19:23:00,
2013-02-15 14:28:00,74.5,70.0,30.91,NNE,19,2.0,4.0,86,0.00,,,0.01,Wunderground v.1.15,2013-02-15 19:28:00,
2013-02-15 14:33:00,74.3,70.2,30.91,NNW,333,2.0,3.0,87,0.00,,,0.01,Wunderground v.1.15,2013-02-15 19:33:00,
2013-02-15 14:38:00,74.1,70.3,30.91,NNE,20,2.0,3.0,88,0.00,,,0.01,Wunderground v.1.15,2013-02-15 19:38:00,
2013-02-15 14:43:00,73.8,70.0,30.91,North,4,3.0,4.0,88,0.00,,,0.01,Wunderground v.1.15,2013-02-15 19:43:00,
2013-02-15 14:49:00,73.7,70.3,30.91,NNE,16,3.0,4.0,89,0.00,,,0.01,Wunderground v.1.15,2013-02-15 19:49:00,
2013-02-15 14:55:00,73.5,70.1,30.91,NW,315,2.0,7.0,89,0.00,,,0.01,Wunderground v.1.15,2013-02-15 19:55:00,
2013-02-15 15:00:00,73.2,69.8,30.90,NNE,16,2.0,2.0,89,0.00,,,0.01,Wunderground v.1.15,2013-02-15 20:00:00,
2013-02-15 15:06:00,73.2,70.1,30.90,WNW,302,2.0,4.0,90,0.00,,,0.01,Wunderground v.1.15,2013-02-15 20:06:00,
2013-02-15 15:11:00,72.8,70.0,30.91,NW,325,2.0,3.0,91,0.26,,,0.03,Wunderground v.1.15,2013-02-15 20:11:00,
2013-02-15 15:16:00,72.1,69.3,30.91,NW,319,2.0,3.0,91,0.24,,,0.05,Wunderground v.1.15,2013-02-15 20:16:00,
2013-02-15 15:21:00,71.7,69.3,30.90,NW,313,2.0,3.0,92,0.08,,,0.05,Wunderground v.1.15,2013-02-15 20:21:00,
2013-02-15 15:27:00,71.7,69.6,30.90,NNW,345,2.0,3.0,93,0.04,,,0.05,Wunderground v.1.15,2013-02-15 20:27:00,
2013-02-15 15:32:00,71.1,68.7,30.90,NNW,347,3.0,8.0,92,0.04,,,0.06,Wunderground v.1.15,2013-02-15 20:32:00,
2013-02-15 15:38:00,70.8,68.7,30.90,North,355,5.0,8.0,93,0.04,,,0.06,Wunderground v.1.15,2013-02-15 20:38:00,
2013-02-15 15:43:00,70.4,68.3,30.90,NNW,340,4.0,11.0,93,0.04,,,0.06,Wunderground v.1.15,2013-02-15 20:43:00,
2013-02-15 15:48:00,70.1,68.0,30.90,NNW,330,5.0,11.0,93,0.00,,,0.06,Wunderground v.1.15,2013-02-15 20:48:00,
2013-02-15 15:53:00,70.2,68.4,30.89,NNE,18,5.0,7.0,94,0.00,,,0.06,Wunderground v.1.15,2013-02-15 20:53:00,
2013-02-15 15:58:00,70.2,68.1,30.89,NNE,15,5.0,8.0,93,0.00,,,0.06,Wunderground v.1.15,2013-02-15 20:58:00,
2013-02-15 16:04:00,70.2,68.1,30.90,NNW,330,4.0,10.0,93,0.00,,,0.06,Wunderground v.1.15,2013-02-15 21:04:00,
2013-02-15 16:09:00,70.1,68.0,30.89,NNE,20,4.0,10.0,93,0.00,,,0.06,Wunderground v.1.15,2013-02-15 21:09:00,
2013-02-15 16:14:00,70.0,67.9,30.89,NNE,20,5.0,7.0,93,0.00,,,0.06,Wunderground v.1.15,2013-02-15 21:14:00,
2013-02-15 16:19:00,70.0,67.9,30.90,NNE,15,5.0,9.0,93,0.00,,,0.06,Wunderground v.1.15,2013-02-15 21:19:00,
2013-02-15 16:25:00,69.9,67.5,30.90,NNW,327,5.0,6.0,92,0.00,,,0.06,Wunderground v.1.15,2013-02-15 21:25:00,
2013-02-15 16:30:00,69.7,67.3,30.90,North,355,5.0,5.0,92,0.00,,,0.06,Wunderground v.1.15,2013-02-15 21:30:00,
2013-02-15 16:35:00,69.6,67.2,30.90,NW,308,5.0,8.0,92,0.00,,,0.06,Wunderground v.1.15,2013-02-15 21:35:00,
2013-02-15 16:40:00,69.6,67.5,30.90,NNW,335,5.0,6.0,93,0.00,,,0.06,Wunderground v.1.15,2013-02-15 21:40:00,
2013-02-15 16:46:00,69.6,67.5,30.90,NE,34,5.0,9.0,93,0.00,,,0.06,Wunderground v.1.15,2013-02-15 21:46:00,
2013-02-15 16:51:00,69.5,67.1,30.90,NNE,15,5.0,9.0,92,0.00,,,0.06,Wunderground v.1.15,2013-02-15 21:51:00,
2013-02-15 16:57:00,69.5,67.4,30.90,NNE,16,5.0,9.0,93,0.00,,,0.06,Wunderground v.1.15,2013-02-15 21:57:00,
2013-02-15 17:02:00,69.5,67.4,30.90,NNW,336,5.0,7.0,93,0.00,,,0.06,Wunderground v.1.15,2013-02-15 22:02:00,
2013-02-15 17:08:00,69.5,67.1,30.90,NNE,31,5.0,9.0,92,0.00,,,0.06,Wunderground v.1.15,2013-02-15 22:08:00,
2013-02-15 17:13:00,69.5,67.1,30.90,North,7,5.0,7.0,92,0.00,,,0.06,Wunderground v.1.15,2013-02-15 22:13:00,
2013-02-15 17:18:00,69.6,67.2,30.90,NNW,338,5.0,7.0,92,0.00,,,0.06,Wunderground v.1.15,2013-02-15 22:18:00,
2013-02-15 17:23:00,69.5,67.1,30.91,North,355,5.0,6.0,92,0.00,,,0.06,Wunderground v.1.15,2013-02-15 22:23:00,
2013-02-15 17:28:00,69.3,66.9,30.90,NE,41,5.0,6.0,92,0.00,,,0.06,Wunderground v.1.15,2013-02-15 22:28:00,
2013-02-15 17:33:00,69.1,67.0,30.90,NW,325,5.0,6.0,93,0.00,,,0.06,Wunderground v.1.15,2013-02-15 22:33:00,
2013-02-15 17:39:00,69.0,66.9,30.90,NNE,19,5.0,7.0,93,0.00,,,0.06,Wunderground v.1.15,2013-02-15 22:39:00,
2013-02-15 17:44:00,68.8,66.7,30.90,NE,41,5.0,10.0,93,0.00,,,0.07,Wunderground v.1.15,2013-02-15 22:44:00,
2013-02-15 17:50:00,68.6,66.5,30.90,NNE,30,5.0,5.0,93,0.00,,,0.07,Wunderground v.1.15,2013-02-15 22:50:00,
2013-02-15 17:55:00,68.7,66.9,30.90,NNE,30,4.0,6.0,94,0.00,,,0.07,Wunderground v.1.15,2013-02-15 22:55:00,
2013-02-15 18:00:00,68.5,66.7,30.90,NNW,343,5.0,5.0,94,0.00,,,0.07,Wunderground v.1.15,2013-02-15 23:00:00,
2013-02-15 18:06:00,68.6,66.8,30.91,NNW,335,5.0,11.0,94,0.00,,,0.07,Wunderground v.1.15,2013-02-15 23:06:00,
2013-02-15 18:11:00,68.6,66.8,30.90,NNE,18,4.0,5.0,94,0.00,,,0.07,Wunderground v.1.15,2013-02-15 23:11:00,
2013-02-15 18:16:00,68.6,66.5,30.90,NNE,32,4.0,8.0,93,0.00,,,0.07,Wunderground v.1.15,2013-02-15 23:16:00,
2013-02-15 18:22:00,68.6,66.8,30.91,NNE,16,4.0,5.0,94,0.00,,,0.07,Wunderground v.1.15,2013-02-15 23:22:00,
2013-02-15 18:27:00,68.5,66.4,30.91,NW,319,4.0,5.0,93,0.00,,,0.07,Wunderground v.1.15,2013-02-15 23:27:00,
2013-02-15 18:32:00,68.3,66.2,30.92,NNW,340,4.0,8.0,93,0.00,,,0.07,Wunderground v.1.15,2013-02-15 23:32:00,
2013-02-15 18:38:00,68.2,66.1,30.92,North,11,4.0,8.0,93,0.00,,,0.07,Wunderground v.1.15,2013-02-15 23:38:00,
2013-02-15 18:44:00,68.2,66.1,30.93,North,354,4.0,6.0,93,0.22,,,0.10,Wunderground v.1.15,2013-02-15 23:44:00,
2013-02-15 18:49:00,68.0,66.2,30.93,NNW,336,3.0,6.0,94,0.18,,,0.11,Wunderground v.1.15,2013-02-15 23:49:00,
2013-02-15 18:54:00,67.9,66.1,30.94,NNW,327,4.0,10.0,94,0.29,,,0.13,Wunderground v.1.15,2013-02-15 23:54:00,
2013-02-15 19:00:00,67.9,66.1,30.94,North,360,3.0,3.0,94,0.51,,,0.17,Wunderground v.1.15,2013-02-16 00:00:00,
2013-02-15 19:06:00,68.0,66.5,30.94,ENE,57,3.0,4.0,95,0.28,,,0.20,Wunderground v.1.15,2013-02-16 00:06:00,
2013-02-15 19:11:00,67.7,66.2,30.94,NNW,332,3.0,3.0,95,0.76,,,0.25,Wunderground v.1.15,2013-02-16 00:11:00,
2013-02-15 19:16:00,67.6,66.1,30.94,North,9,2.0,4.0,95,0.23,,,0.28,Wunderground v.1.15,2013-02-16 00:16:00,
2013-02-15 19:22:00,67.5,66.0,30.93,NNE,12,2.0,3.0,95,0.14,,,0.29,Wunderground v.1.15,2013-02-16 00:22:00,
2013-02-15 19:27:00,67.4,65.9,30.93,ENE,57,2.0,4.0,95,0.06,,,0.29,Wunderground v.1.15,2013-02-16 00:27:00,
2013-02-15 19:32:00,67.2,65.7,30.93,ESE,120,3.0,3.0,95,0.05,,,0.30,Wunderground v.1.15,2013-02-16 00:32:00,
2013-02-15 19:37:00,67.1,65.6,30.92,ENE,57,2.0,4.0,95,0.05,,,0.30,Wunderground v.1.15,2013-02-16 00:37:00,
2013-02-15 19:43:00,67.0,65.5,30.93,ENE,64,2.0,3.0,95,0.05,,,0.30,Wunderground v.1.15,2013-02-16 00:43:00,
2013-02-15 19:49:00,67.0,65.8,30.92,East,99,2.0,4.0,96,0.00,,,0.30,Wunderground v.1.15,2013-02-16 00:49:00,
2013-02-15 19:54:00,67.0,65.8,30.92,East,101,3.0,5.0,96,0.00,,,0.30,Wunderground v.1.15,2013-02-16 00:54:00,
2013-02-15 19:59:00,66.9,65.4,30.92,NNE,12,3.0,5.0,95,0.00,,,0.30,Wunderground v.1.15,2013-02-16 00:59:00,
2013-02-15 20:04:00,66.9,65.7,30.92,NE,43,2.0,4.0,96,0.00,,,0.30,Wunderground v.1.15,2013-02-16 01:04:00,
2013-02-15 20:10:00,66.9,65.7,30.92,ESE,116,2.0,2.0,96,0.00,,,0.30,Wunderground v.1.15,2013-02-16 01:10:00,
2013-02-15 20:15:00,66.8,65.6,30.93,ENE,71,2.0,4.0,96,0.00,,,0.30,Wunderground v.1.15,2013-02-16 01:15:00,
2013-02-15 20:20:00,66.8,65.6,30.92,ESE,110,2.0,3.0,96,0.00,,,0.30,Wunderground v.1.15,2013-02-16 01:20:00,
2013-02-15 20:26:00,66.9,65.7,30.93,North,8,2.0,3.0,96,0.00,,,0.30,Wunderground v.1.15,2013-02-16 01:26:00,
2013-02-15 20:31:00,66.9,65.7,30.93,East,79,2.0,3.0,96,0.00,,,0.30,Wunderground v.1.15,2013-02-16 01:31:00,
2013-02-15 20:37:00,66.9,65.7,30.93,North,10,2.0,3.0,96,0.00,,,0.30,Wunderground v.1.15,2013-02-16 01:37:00,
2013-02-15 20:43:00,66.9,65.7,30.93,NNE,32,1.0,4.0,96,0.00,,,0.30,Wunderground v.1.15,2013-02-16 01:43:00,
2013-02-15 20:48:00,66.9,65.7,30.93,East,94,2.0,4.0,96,0.00,,,0.30,Wunderground v.1.15,2013-02-16 01:48:00,
2013-02-15 20:55:00,66.9,65.7,30.93,NE,50,1.0,3.0,96,0.00,,,0.30,Wunderground v.1.15,2013-02-16 01:55:00,
2013-02-15 21:00:00,66.9,65.7,30.94,East,84,1.0,3.0,96,0.00,,,0.30,Wunderground v.1.15,2013-02-16 02:00:00,
2013-02-15 21:06:00,67.0,65.8,30.93,ESE,122,1.0,3.0,96,0.00,,,0.31,Wunderground v.1.15,2013-02-16 02:06:00,
2013-02-15 21:12:00,66.9,65.7,30.94,NE,34,1.0,3.0,96,0.00,,,0.31,Wunderground v.1.15,2013-02-16 02:12:00,
2013-02-15 21:18:00,66.9,65.7,30.95,NNE,32,1.0,3.0,96,0.00,,,0.31,Wunderground v.1.15,2013-02-16 02:18:00,
2013-02-15 21:23:00,66.9,65.7,30.95,NE,41,0.0,3.0,96,0.00,,,0.31,Wunderground v.1.15,2013-02-16 02:23:00,
2013-02-15 21:28:00,66.8,65.6,30.95,NE,40,0.0,3.0,96,0.00,,,0.32,Wunderground v.1.15,2013-02-16 02:28:00,
2013-02-15 21:34:00,66.9,65.7,30.94,NNE,23,0.0,3.0,96,0.00,,,0.32,Wunderground v.1.15,2013-02-16 02:34:00,
2013-02-15 21:39:00,67.0,65.8,30.94,NE,54,0.0,3.0,96,0.14,,,0.34,Wunderground v.1.15,2013-02-16 02:39:00,
2013-02-15 21:44:00,67.1,65.9,30.94,East,82,0.0,3.0,96,0.25,,,0.36,Wunderground v.1.15,2013-02-16 02:44:00,
2013-02-15 21:49:00,67.1,65.9,30.94,NNE,18,0.0,3.0,96,0.41,,,0.39,Wunderground v.1.15,2013-02-16 02:49:00,
2013-02-15 21:54:00,67.2,66.0,30.94,NNE,18,0.0,3.0,96,0.23,,,0.41,Wunderground v.1.15,2013-02-16 02:54:00,
2013-02-15 22:01:00,67.3,66.1,30.94,NNE,25,0.0,3.0,96,0.27,,,0.43,Wunderground v.1.15,2013-02-16 03:01:00,
2013-02-15 22:06:00,67.4,66.5,30.94,North,3,0.0,3.0,97,0.15,,,0.44,Wunderground v.1.15,2013-02-16 03:06:00,
2013-02-15 22:11:00,67.5,66.6,30.95,East,96,0.0,3.0,97,0.84,,,0.47,Wunderground v.1.15,2013-02-16 03:11:00,
2013-02-15 22:16:00,67.6,66.7,30.95,ESE,113,0.0,3.0,97,0.21,,,0.49,Wunderground v.1.15,2013-02-16 03:16:00,
2013-02-15 22:21:00,67.7,66.8,30.94,NNE,22,0.0,3.0,97,0.23,,,0.52,Wunderground v.1.15,2013-02-16 03:21:00,
2013-02-15 22:27:00,67.6,66.7,30.95,NNE,22,0.0,3.0,97,0.18,,,0.53,Wunderground v.1.15,2013-02-16 03:27:00,
2013-02-15 22:32:00,67.6,66.7,30.95,NNE,22,0.0,3.0,97,0.15,,,0.55,Wunderground v.1.15,2013-02-16 03:32:00,
2013-02-15 22:37:00,67.5,66.6,30.95,NNE,22,0.0,3.0,97,0.60,,,0.58,Wunderground v.1.15,2013-02-16 03:37:00,
2013-02-15 22:43:00,67.6,66.7,30.95,East,100,0.0,3.0,97,0.24,,,0.61,Wunderground v.1.15,2013-02-16 03:43:00,
2013-02-15 22:48:00,67.6,66.7,30.94,East,89,0.0,3.0,97,0.29,,,0.63,Wunderground v.1.15,2013-02-16 03:48:00,
2013-02-15 22:53:00,67.6,66.7,30.95,ESE,103,0.0,3.0,97,0.13,,,0.64,Wunderground v.1.15,2013-02-16 03:53:00,
2013-02-15 22:58:00,67.7,66.8,30.94,ESE,105,1.0,3.0,97,0.06,,,0.64,Wunderground v.1.15,2013-02-16 03:58:00,
2013-02-15 23:04:00,67.8,66.9,30.94,East,92,0.0,3.0,97,0.05,,,0.65,Wunderground v.1.15,2013-02-16 04:04:00,
2013-02-15 23:09:00,68.0,67.1,30.94,East,84,0.0,3.0,97,0.05,,,0.65,Wunderground v.1.15,2013-02-16 04:09:00,
2013-02-15 23:14:00,68.1,67.2,30.94,ESE,105,0.0,3.0,97,0.05,,,0.65,Wunderground v.1.15,2013-02-16 04:14:00,
2013-02-15 23:19:00,68.1,67.2,30.94,East,97,0.0,3.0,97,0.04,,,0.66,Wunderground v.1.15,2013-02-16 04:19:00,
2013-02-15 23:24:00,68.2,67.3,30.94,East,94,0.0,3.0,97,0.04,,,0.66,Wunderground v.1.15,2013-02-16 04:24:00,
2013-02-15 23:30:00,68.2,67.3,30.94,East,91,0.0,3.0,97,0.14,,,0.68,Wunderground v.1.15,2013-02-16 04:30:00,
2013-02-15 23:35:00,68.3,67.4,30.93,ESE,120,0.0,3.0,97,0.19,,,0.70,Wunderground v.1.15,2013-02-16 04:35:00,
2013-02-15 23:41:00,68.3,67.4,30.92,NW,325,0.0,3.0,97,0.13,,,0.71,Wunderground v.1.15,2013-02-16 04:41:00,
2013-02-15 23:46:00,68.3,67.4,30.92,NE,47,0.0,3.0,97,0.08,,,0.71,Wunderground v.1.15,2013-02-16 04:46:00,
2013-02-15 23:51:00,68.3,67.4,30.92,East,84,0.0,3.0,97,0.05,,,0.72,Wunderground v.1.15,2013-02-16 04:51:00,
2013-02-15 23:57:00,68.3,67.4,30.92,WSW,238,0.0,3.0,97,0.11,,,0.73,Wunderground v.1.15,2013-02-16 04:57:00,